Ridgefield, WA

8:25 AM PST on February 10, 2016 (GMT -0800)
Sara W7WR | | Change Station
CLOSE
Current Station
Personal Weather Station
Location: Ridgefield, WA
Elevation: 210 ft
Nearby Weather Stations

Elev 210 ft 45.76 °N, 122.71 °W | Updated 8 seconds ago

Mostly Cloudy
Mostly Cloudy
41.8 °F
Feels Like 42 °F
N
0.0
Wind Variable Wind from NNE
Gusts 0.9 mph

Today
High -- | Low -- °F
--% Chance of Precip.
Yesterday
High -- | Low -- °F
Precip. -- in
Pressure 30.19 in
Visibility 10.0 miles
Clouds Few 12000 ft
Windchill 42 °F
Dew Point Not available.
Humidity Not available.
Rainfall 0.00 in
Snow Depth Not available.
7:20 AM 5:29 PM
Waxing Crescent, 6% visible
METAR KSPB 101553Z AUTO 00000KT 10SM FEW120 06/04 A3019 RMK AO2 SLP224 T00560044
Pressure 30.19 in
Visibility 10.0 miles
Clouds Few 12000 ft
Windchill 42 °F
Dew Point Not available.
Humidity Not available.
Rainfall 0.00 in
Snow Depth Not available.
7:20 AM 5:29 PM
Waxing Crescent, 6% visible
METAR KSPB 101553Z AUTO 00000KT 10SM FEW120 06/04 A3019 RMK AO2 SLP224 T00560044

10-Day Weather Forecast

Almanac

Astronomy

Feb. 10, 2016 Rise Set
Actual Time
Civil Twilight
Nautical Twilight
Astronomical Twilight
Moon
Length of Visible Light
Length of Day
Tomorrow will be .
, % of the Moon is Illuminated

Today's Extremes

State Highs State Lows

Community

WunderPhotos

Upload Photos

1,891,881 photos uploaded!

WunderBlog® & News

Nearby

Air Quality

  Air Quality AQ Index Pollutant
Not available.

Snow Depth

Station Depth Elevation

Earthquake Activity

City Distance Mag. Time & Date
Minimum magnitude displayed is 2.5.

Coastal Water Temperatures

Place Temperature

Stations

Nearby Weather Stations

Station Location Temp. Windchill Dew Point Humidity Wind Precip. Elev Updated Type
                   

Watches & Warnings

There are currently no watches in effect.